Emerson, New Jersey
Current Conditions -  °F | °C
As of 4:51 PM on Monday 24 Nov 2014 (Local Time) from KTEB Reporting Station
Clear Clear  
Wind Chill: 68°   Ceiling: Unl
Heat Index: 68°   Visibility: 10mi
Dew Point: 54°   Wind: 13mph
Humidity: 61%   Direction: 200°SSW
Pressure: 29.61"   Gusts: NA
Location:  40.98°N, 74.02°W
Report Text: KTEB 242151Z 20011KT 10SM CLR 20/12 A2961 RMK AO2 SLP027 T02000122
Loading
Personal Weather Stations






























Interactive Weather Map New forecast layout! Learn more

10-Day Weather Forecast

Advertisements
Track Severe Weather on mobile